Página principal
METAR-TAF:

METAR-TAF

Aeroportos :

Rabat, Marrocos

latitude: 34-03N, longitude: 006-46W, altura: 84 m

Observação actual do tempo

O boletim foi feito há 38 minutos, às 07:00 UTC
Vento 3 kt de su-sudeste, variando entre es-sudeste e sul
Temperatura 9°C
Humidade 93%
Pressão 1024 hPa
Visibilidade: 7000 m
Poucas nuvensa uma altura de 1600 ft

METAR: GMME 100700Z 15003KT 110V190 7000 FEW016 09/08 Q1024 NOSIG

Hora: 07:38 (07:38 UTC)

Previsão

O boletim foi feito há 2 horas e 38 minutos, às 05:00 UTC
Previsão válida de 10 às 06 UTC a 11 às 12 UTC
Vento 10 kt de oeste
Visibilidade 10 km ou mais
sem nuvens abaixo de 1500 metros e sem cumulonimbus
Temporariamente
de 10 às 18 UTC a 10 às 24 UTC
Vento 4 kt de sudoeste
Visibilidade: 5000 m
Nuvens dispersasa uma altura de 1000 ft
Nuvens dispersasa uma altura de 1500 ft

TAF: GMME 100500Z 1006/1112 28010KT CAVOK TEMPO 1018/1024 22004KT 5000 SCT010 SCT015

Observações e previsões do tempo de mais de 4000 aeroportos (mensagens METAR e TAF).

As estações disponíveis são os pontos amarelos e vermelhos sobre o mapa.

Mova o rato sobre o mapa para ver o nome da estação.

Depois clique no ponto para visualizar as observações e previsões meteorológicas.

Para alterar o mapa : clique nos botões verdes com uma cruz preta para aumentar o zoom; no botão verde com uma pitada de zoom; ou nas setas verdes para mapas adjacentes.


METAR-TAF: